sensor_id;sensor_type;location;lat;lon;timestamp;pressure;altitude;pressure_sealevel;temperature
64394;BMP280;50712;49.506;10.400;2024-03-02T00:00:28;96929.53;;;9.42
64394;BMP280;50712;49.506;10.400;2024-03-02T00:00:58;96930.28;;;9.42
64394;BMP280;50712;49.506;10.400;2024-03-02T00:01:28;96930.28;;;9.42
64394;BMP280;50712;49.506;10.400;2024-03-02T00:01:59;96934.22;;;9.41
64394;BMP280;50712;49.506;10.400;2024-03-02T00:02:29;96927.56;;;9.42
64394;BMP280;50712;49.506;10.400;2024-03-02T00:02:59;96929.53;;;9.42
64394;BMP280;50712;49.506;10.400;2024-03-02T00:03:30;96922.13;;;9.42
64394;BMP280;50712;49.506;10.400;2024-03-02T00:04:00;96928.03;;;9.41
64394;BMP280;50712;49.506;10.400;2024-03-02T00:04:33;96926.81;;;9.42
64394;BMP280;50712;49.506;10.400;2024-03-02T00:05:04;96930.28;;;9.42
64394;BMP280;50712;49.506;10.400;2024-03-02T00:05:35;96926.81;;;9.42
64394;BMP280;50712;49.506;10.400;2024-03-02T00:06:05;96932.25;;;9.42
64394;BMP280;50712;49.506;10.400;2024-03-02T00:06:36;96928.78;;;9.41
64394;BMP280;50712;49.506;10.400;2024-03-02T00:07:07;96923.34;;;9.41
64394;BMP280;50712;49.506;10.400;2024-03-02T00:07:40;96928.03;;;9.41
64394;BMP280;50712;49.506;10.400;2024-03-02T00:08:12;96924.53;;;9.40
64394;BMP280;50712;49.506;10.400;2024-03-02T00:08:48;96924.53;;;9.40
64394;BMP280;50712;49.506;10.400;2024-03-02T00:09:19;96925.78;;;9.39
64394;BMP280;50712;49.506;10.400;2024-03-02T00:09:52;96925.78;;;9.39
64394;BMP280;50712;49.506;10.400;2024-03-02T00:10:34;96923.50;;;9.38
64394;BMP280;50712;49.506;10.400;2024-03-02T00:11:09;96923.50;;;9.38
64394;BMP280;50712;49.506;10.400;2024-03-02T00:11:41;96922.00;;;9.37
64394;BMP280;50712;49.506;10.400;2024-03-02T00:12:15;96923.97;;;9.36
64394;BMP280;50712;49.506;10.400;2024-03-02T00:12:46;96926.69;;;9.36
64394;BMP280;50712;49.506;10.400;2024-03-02T00:13:20;96921.25;;;9.36
64394;BMP280;50712;49.506;10.400;2024-03-02T00:13:54;96921.69;;;9.35
64394;BMP280;50712;49.506;10.400;2024-03-02T00:14:24;96920.94;;;9.34
64394;BMP280;50712;49.506;10.400;2024-03-02T00:14:55;96922.94;;;9.34
64394;BMP280;50712;49.506;10.400;2024-03-02T00:15:41;96915.50;;;9.34
64394;BMP280;50712;49.506;10.400;2024-03-02T00:16:21;96921.44;;;9.33
64394;BMP280;50712;49.506;10.400;2024-03-02T00:16:52;96912.53;;;9.32
64394;BMP280;50712;49.506;10.400;2024-03-02T00:17:25;96921.88;;;9.31
64394;BMP280;50712;49.506;10.400;2024-03-02T00:17:56;96919.91;;;9.32
64394;BMP280;50712;49.506;10.400;2024-03-02T00:18:27;96918.41;;;9.31
64394;BMP280;50712;49.506;10.400;2024-03-02T00:19:01;96915.69;;;9.31
64394;BMP280;50712;49.506;10.400;2024-03-02T00:19:33;96912.97;;;9.31
64394;BMP280;50712;49.506;10.400;2024-03-02T00:20:03;96921.13;;;9.31
64394;BMP280;50712;49.506;10.400;2024-03-02T00:20:37;96916.91;;;9.30
64394;BMP280;50712;49.506;10.400;2024-03-02T00:21:08;96915.41;;;9.29
64394;BMP280;50712;49.506;10.400;2024-03-02T00:21:43;96917.34;;;9.28
64394;BMP280;50712;49.506;10.400;2024-03-02T00:22:13;96915.41;;;9.29
64394;BMP280;50712;49.506;10.400;2024-03-02T00:22:44;96911.16;;;9.28
64394;BMP280;50712;49.506;10.400;2024-03-02T00:23:15;96919.31;;;9.28
64394;BMP280;50712;49.506;10.400;2024-03-02T00:23:47;96916.59;;;9.28
64394;BMP280;50712;49.506;10.400;2024-03-02T00:24:49;96912.84;;;9.25
64394;BMP280;50712;49.506;10.400;2024-03-02T00:25:19;96918.28;;;9.25
64394;BMP280;50712;49.506;10.400;2024-03-02T00:25:51;96912.84;;;9.25
64394;BMP280;50712;49.506;10.400;2024-03-02T00:26:25;96922.94;;;9.25
64394;BMP280;50712;49.506;10.400;2024-03-02T00:26:58;96916.78;;;9.24
64394;BMP280;50712;49.506;10.400;2024-03-02T00:27:29;96918.78;;;9.24
64394;BMP280;50712;49.506;10.400;2024-03-02T00:27:59;96916.78;;;9.24
64394;BMP280;50712;49.506;10.400;2024-03-02T00:28:32;96916.06;;;9.24
64394;BMP280;50712;49.506;10.400;2024-03-02T00:29:04;96917.25;;;9.23
64394;BMP280;50712;49.506;10.400;2024-03-02T00:29:34;96918.00;;;9.23
64394;BMP280;50712;49.506;10.400;2024-03-02T00:31:16;96916.50;;;9.22
64394;BMP280;50712;49.506;10.400;2024-03-02T00:31:50;96915.72;;;9.22
64394;BMP280;50712;49.506;10.400;2024-03-02T00:32:20;96918.44;;;9.22
64394;BMP280;50712;49.506;10.400;2024-03-02T00:32:50;96917.69;;;9.21
64394;BMP280;50712;49.506;10.400;2024-03-02T00:33:23;96923.13;;;9.21
64394;BMP280;50712;49.506;10.400;2024-03-02T00:33:56;96924.34;;;9.20
64394;BMP280;50712;49.506;10.400;2024-03-02T00:34:31;96925.84;;;9.21
64394;BMP280;50712;49.506;10.400;2024-03-02T00:35:04;96923.13;;;9.21
64394;BMP280;50712;49.506;10.400;2024-03-02T00:35:35;96925.13;;;9.21
64394;BMP280;50712;49.506;10.400;2024-03-02T00:36:05;96922.41;;;9.21
64394;BMP280;50712;49.506;10.400;2024-03-02T00:36:36;96927.84;;;9.21
64394;BMP280;50712;49.506;10.400;2024-03-02T00:37:07;96925.13;;;9.21
64394;BMP280;50712;49.506;10.400;2024-03-02T00:37:37;96919.22;;;9.22
64394;BMP280;50712;49.506;10.400;2024-03-02T00:38:07;96928.56;;;9.21
64394;BMP280;50712;49.506;10.400;2024-03-02T00:38:46;96918.44;;;9.22
64394;BMP280;50712;49.506;10.400;2024-03-02T00:39:17;96919.69;;;9.21
64394;BMP280;50712;49.506;10.400;2024-03-02T00:39:48;96918.44;;;9.22
64394;BMP280;50712;49.506;10.400;2024-03-02T00:40:21;96928.13;;;9.23
64394;BMP280;50712;49.506;10.400;2024-03-02T00:40:58;96927.34;;;9.22
64394;BMP280;50712;49.506;10.400;2024-03-02T00:41:30;96926.16;;;9.23
64394;BMP280;50712;49.506;10.400;2024-03-02T00:42:01;96927.34;;;9.22
64394;BMP280;50712;49.506;10.400;2024-03-02T00:42:31;96924.63;;;9.22
64394;BMP280;50712;49.506;10.400;2024-03-02T00:43:02;96925.41;;;9.23
64394;BMP280;50712;49.506;10.400;2024-03-02T00:43:38;96922.69;;;9.23
64394;BMP280;50712;49.506;10.400;2024-03-02T00:44:15;96926.91;;;9.24
64394;BMP280;50712;49.506;10.400;2024-03-02T00:44:50;96928.88;;;9.23
64394;BMP280;50712;49.506;10.400;2024-03-02T00:45:20;96926.16;;;9.23
64394;BMP280;50712;49.506;10.400;2024-03-02T00:45:50;96928.13;;;9.23
64394;BMP280;50712;49.506;10.400;2024-03-02T00:46:21;96931.59;;;9.23
64394;BMP280;50712;49.506;10.400;2024-03-02T00:46:51;96929.63;;;9.24
64394;BMP280;50712;49.506;10.400;2024-03-02T00:47:23;96920.72;;;9.23
64394;BMP280;50712;49.506;10.400;2024-03-02T00:47:53;96937.03;;;9.23
64394;BMP280;50712;49.506;10.400;2024-03-02T00:48:23;96926.16;;;9.23
64394;BMP280;50712;49.506;10.400;2024-03-02T00:48:55;96930.06;;;9.22
64394;BMP280;50712;49.506;10.400;2024-03-02T00:49:25;96930.06;;;9.22
64394;BMP280;50712;49.506;10.400;2024-03-02T00:49:56;96928.13;;;9.23
64394;BMP280;50712;49.506;10.400;2024-03-02T00:50:27;96930.84;;;9.23
64394;BMP280;50712;49.506;10.400;2024-03-02T00:50:57;96933.56;;;9.23
64394;BMP280;50712;49.506;10.400;2024-03-02T00:51:28;96924.63;;;9.22
64394;BMP280;50712;49.506;10.400;2024-03-02T00:52:00;96932.03;;;9.22
64394;BMP280;50712;49.506;10.400;2024-03-02T00:52:31;96931.59;;;9.23
64394;BMP280;50712;49.506;10.400;2024-03-02T00:53:03;96926.59;;;9.22
64394;BMP280;50712;49.506;10.400;2024-03-02T00:53:33;96930.06;;;9.22
64394;BMP280;50712;49.506;10.400;2024-03-02T00:54:04;96926.59;;;9.22
64394;BMP280;50712;49.506;10.400;2024-03-02T00:54:36;96928.56;;;9.21
64394;BMP280;50712;49.506;10.400;2024-03-02T00:55:07;96931.28;;;9.21
64394;BMP280;50712;49.506;10.400;2024-03-02T00:55:38;96925.13;;;9.21
64394;BMP280;50712;49.506;10.400;2024-03-02T00:56:14;96935.22;;;9.20
64394;BMP280;50712;49.506;10.400;2024-03-02T00:56:44;96928.56;;;9.21
64394;BMP280;50712;49.506;10.400;2024-03-02T00:57:14;96925.13;;;9.21
64394;BMP280;50712;49.506;10.400;2024-03-02T00:57:45;96928.56;;;9.21
64394;BMP280;50712;49.506;10.400;2024-03-02T00:58:15;96932.50;;;9.20
64394;BMP280;50712;49.506;10.400;2024-03-02T00:58:46;96932.50;;;9.20
64394;BMP280;50712;49.506;10.400;2024-03-02T00:59:16;96927.84;;;9.21
64394;BMP280;50712;49.506;10.400;2024-03-02T00:59:47;96922.84;;;9.19
64394;BMP280;50712;49.506;10.400;2024-03-02T01:00:18;96929.78;;;9.20
64394;BMP280;50712;49.506;10.400;2024-03-02T01:00:49;96931.75;;;9.20
64394;BMP280;50712;49.506;10.400;2024-03-02T01:01:19;96927.06;;;9.20
64394;BMP280;50712;49.506;10.400;2024-03-02T01:01:50;96924.34;;;9.20
64394;BMP280;50712;49.506;10.400;2024-03-02T01:02:20;96930.53;;;9.21
64394;BMP280;50712;49.506;10.400;2024-03-02T01:02:51;96927.84;;;9.21
64394;BMP280;50712;49.506;10.400;2024-03-02T01:03:21;96924.34;;;9.20
64394;BMP280;50712;49.506;10.400;2024-03-02T01:03:52;96927.84;;;9.21
64394;BMP280;50712;49.506;10.400;2024-03-02T01:04:22;96925.84;;;9.21
64394;BMP280;50712;49.506;10.400;2024-03-02T01:04:53;96927.06;;;9.20
64394;BMP280;50712;49.506;10.400;2024-03-02T01:05:23;96923.59;;;9.20
64394;BMP280;50712;49.506;10.400;2024-03-02T01:05:53;96930.53;;;9.21
64394;BMP280;50712;49.506;10.400;2024-03-02T01:06:24;96924.34;;;9.20
64394;BMP280;50712;49.506;10.400;2024-03-02T01:06:54;96935.22;;;9.20
64394;BMP280;50712;49.506;10.400;2024-03-02T01:07:24;96925.56;;;9.19
64394;BMP280;50712;49.506;10.400;2024-03-02T01:07:55;96920.59;;;9.18
64394;BMP280;50712;49.506;10.400;2024-03-02T01:08:25;96924.78;;;9.19
64394;BMP280;50712;49.506;10.400;2024-03-02T01:08:58;96926.75;;;9.18
64394;BMP280;50712;49.506;10.400;2024-03-02T01:09:28;96923.31;;;9.18
64394;BMP280;50712;49.506;10.400;2024-03-02T01:09:59;96926.31;;;9.20
64394;BMP280;50712;49.506;10.400;2024-03-02T01:10:29;96924.78;;;9.19
64394;BMP280;50712;49.506;10.400;2024-03-02T01:10:59;96929.47;;;9.18
64394;BMP280;50712;49.506;10.400;2024-03-02T01:11:30;96926.75;;;9.18
64394;BMP280;50712;49.506;10.400;2024-03-02T01:12:01;96929.47;;;9.18
64394;BMP280;50712;49.506;10.400;2024-03-02T01:12:31;96926.03;;;9.18
64394;BMP280;50712;49.506;10.400;2024-03-02T01:13:01;96929.47;;;9.18
64394;BMP280;50712;49.506;10.400;2024-03-02T01:13:32;96932.94;;;9.19
64394;BMP280;50712;49.506;10.400;2024-03-02T01:14:02;96928.75;;;9.18
64394;BMP280;50712;49.506;10.400;2024-03-02T01:14:33;96934.19;;;9.18
64394;BMP280;50712;49.506;10.400;2024-03-02T01:15:03;96934.19;;;9.18
64394;BMP280;50712;49.506;10.400;2024-03-02T01:15:36;96933.41;;;9.17
64394;BMP280;50712;49.506;10.400;2024-03-02T01:16:06;96934.19;;;9.18
64394;BMP280;50712;49.506;10.400;2024-03-02T01:16:36;96932.66;;;9.17
64394;BMP280;50712;49.506;10.400;2024-03-02T01:17:07;96936.13;;;9.17
64394;BMP280;50712;49.506;10.400;2024-03-02T01:17:37;96929.94;;;9.17
64394;BMP280;50712;49.506;10.400;2024-03-02T01:18:07;96935.38;;;9.17
64394;BMP280;50712;49.506;10.400;2024-03-02T01:18:38;96928.41;;;9.16
64394;BMP280;50712;49.506;10.400;2024-03-02T01:19:09;96928.41;;;9.16
64394;BMP280;50712;49.506;10.400;2024-03-02T01:19:41;96929.19;;;9.16
64394;BMP280;50712;49.506;10.400;2024-03-02T01:20:12;96934.63;;;9.16
64394;BMP280;50712;49.506;10.400;2024-03-02T01:20:42;96934.63;;;9.16
64394;BMP280;50712;49.506;10.400;2024-03-02T01:21:12;96931.13;;;9.16
64394;BMP280;50712;49.506;10.400;2024-03-02T01:21:43;96934.63;;;9.16
64394;BMP280;50712;49.506;10.400;2024-03-02T01:22:13;96932.66;;;9.17
64394;BMP280;50712;49.506;10.400;2024-03-02T01:22:43;96942.00;;;9.16
64394;BMP280;50712;49.506;10.400;2024-03-02T01:23:14;96938.84;;;9.17
64394;BMP280;50712;49.506;10.400;2024-03-02T01:23:44;96931.13;;;9.16
64394;BMP280;50712;49.506;10.400;2024-03-02T01:24:14;96942.00;;;9.16
64394;BMP280;50712;49.506;10.400;2024-03-02T01:24:45;96935.09;;;9.15
64394;BMP280;50712;49.506;10.400;2024-03-02T01:25:15;96937.81;;;9.15
64394;BMP280;50712;49.506;10.400;2024-03-02T01:25:48;96940.53;;;9.15
64394;BMP280;50712;49.506;10.400;2024-03-02T01:26:19;96937.81;;;9.15
64394;BMP280;50712;49.506;10.400;2024-03-02T01:26:49;96934.34;;;9.14
64394;BMP280;50712;49.506;10.400;2024-03-02T01:27:20;96930.13;;;9.13
64394;BMP280;50712;49.506;10.400;2024-03-02T01:27:51;96930.88;;;9.14
64394;BMP280;50712;49.506;10.400;2024-03-02T01:28:21;96937.06;;;9.14
64394;BMP280;50712;49.506;10.400;2024-03-02T01:28:52;96933.59;;;9.14
64394;BMP280;50712;49.506;10.400;2024-03-02T01:29:22;96930.88;;;9.14
64394;BMP280;50712;49.506;10.400;2024-03-02T01:29:52;96928.16;;;9.14
64394;BMP280;50712;49.506;10.400;2024-03-02T01:30:24;96926.66;;;9.13
64394;BMP280;50712;49.506;10.400;2024-03-02T01:30:55;96928.91;;;9.14
64394;BMP280;50712;49.506;10.400;2024-03-02T01:31:25;96930.88;;;9.14
64394;BMP280;50712;49.506;10.400;2024-03-02T01:31:55;96931.63;;;9.14
64394;BMP280;50712;49.506;10.400;2024-03-02T01:32:26;96926.19;;;9.14
64394;BMP280;50712;49.506;10.400;2024-03-02T01:32:56;96936.31;;;9.14
64394;BMP280;50712;49.506;10.400;2024-03-02T01:33:26;96928.91;;;9.14
64394;BMP280;50712;49.506;10.400;2024-03-02T01:33:56;96934.34;;;9.14
64394;BMP280;50712;49.506;10.400;2024-03-02T01:34:27;96929.66;;;9.15
64394;BMP280;50712;49.506;10.400;2024-03-02T01:34:57;96937.06;;;9.14
64394;BMP280;50712;49.506;10.400;2024-03-02T01:35:27;96935.09;;;9.15
64394;BMP280;50712;49.506;10.400;2024-03-02T01:35:58;96933.09;;;9.15
64394;BMP280;50712;49.506;10.400;2024-03-02T01:36:28;96935.81;;;9.15
64394;BMP280;50712;49.506;10.400;2024-03-02T01:36:58;96935.81;;;9.15
64394;BMP280;50712;49.506;10.400;2024-03-02T01:37:29;96941.25;;;9.15
64394;BMP280;50712;49.506;10.400;2024-03-02T01:37:59;96933.09;;;9.15
64394;BMP280;50712;49.506;10.400;2024-03-02T01:38:29;96935.81;;;9.15
64394;BMP280;50712;49.506;10.400;2024-03-02T01:39:01;96935.38;;;9.17
64394;BMP280;50712;49.506;10.400;2024-03-02T01:39:31;96936.13;;;9.17
64394;BMP280;50712;49.506;10.400;2024-03-02T01:40:02;96940.06;;;9.16
64394;BMP280;50712;49.506;10.400;2024-03-02T01:40:33;96937.34;;;9.16
64394;BMP280;50712;49.506;10.400;2024-03-02T01:41:04;96940.81;;;9.17
64394;BMP280;50712;49.506;10.400;2024-03-02T01:41:35;96938.09;;;9.17
64394;BMP280;50712;49.506;10.400;2024-03-02T01:42:05;96937.34;;;9.16
64394;BMP280;50712;49.506;10.400;2024-03-02T01:42:36;96940.81;;;9.17
64394;BMP280;50712;49.506;10.400;2024-03-02T01:43:07;96936.13;;;9.17
64394;BMP280;50712;49.506;10.400;2024-03-02T01:43:38;96944.28;;;9.17
64394;BMP280;50712;49.506;10.400;2024-03-02T01:44:08;96945.47;;;9.16
64394;BMP280;50712;49.506;10.400;2024-03-02T01:44:39;96937.34;;;9.16
64394;BMP280;50712;49.506;10.400;2024-03-02T01:45:10;96940.06;;;9.16
64394;BMP280;50712;49.506;10.400;2024-03-02T01:45:41;96945.47;;;9.16
64394;BMP280;50712;49.506;10.400;2024-03-02T01:46:11;96938.09;;;9.17
64394;BMP280;50712;49.506;10.400;2024-03-02T01:46:42;96943.53;;;9.17
64394;BMP280;50712;49.506;10.400;2024-03-02T01:47:12;96945.47;;;9.16
64394;BMP280;50712;49.506;10.400;2024-03-02T01:47:42;96942.00;;;9.16
64394;BMP280;50712;49.506;10.400;2024-03-02T01:48:13;96942.75;;;9.16
64394;BMP280;50712;49.506;10.400;2024-03-02T01:48:43;96946.69;;;9.15
64394;BMP280;50712;49.506;10.400;2024-03-02T01:49:13;96936.56;;;9.16
64394;BMP280;50712;49.506;10.400;2024-03-02T01:49:44;96944.72;;;9.16
64394;BMP280;50712;49.506;10.400;2024-03-02T01:50:14;96935.09;;;9.15
64394;BMP280;50712;49.506;10.400;2024-03-02T01:50:45;96935.09;;;9.15
64394;BMP280;50712;49.506;10.400;2024-03-02T01:51:15;96940.53;;;9.15
64394;BMP280;50712;49.506;10.400;2024-03-02T01:51:46;96935.09;;;9.15
64394;BMP280;50712;49.506;10.400;2024-03-02T01:52:16;96936.31;;;9.14
64394;BMP280;50712;49.506;10.400;2024-03-02T01:52:46;96937.06;;;9.14
64394;BMP280;50712;49.506;10.400;2024-03-02T01:53:17;96935.56;;;9.13
64394;BMP280;50712;49.506;10.400;2024-03-02T01:53:47;96936.31;;;9.14
64394;BMP280;50712;49.506;10.400;2024-03-02T01:54:17;96939.78;;;9.14
64394;BMP280;50712;49.506;10.400;2024-03-02T01:54:48;96939.03;;;9.14
64394;BMP280;50712;49.506;10.400;2024-03-02T01:55:18;96934.78;;;9.13
64394;BMP280;50712;49.506;10.400;2024-03-02T01:55:48;96936.75;;;9.12
64394;BMP280;50712;49.506;10.400;2024-03-02T01:56:19;96936.75;;;9.12
64394;BMP280;50712;49.506;10.400;2024-03-02T01:56:49;96934.03;;;9.12
64394;BMP280;50712;49.506;10.400;2024-03-02T01:57:20;96939.47;;;9.12
64394;BMP280;50712;49.506;10.400;2024-03-02T01:57:50;96939.47;;;9.12
64394;BMP280;50712;49.506;10.400;2024-03-02T01:58:22;96941.44;;;9.12
64394;BMP280;50712;49.506;10.400;2024-03-02T01:58:52;96929.84;;;9.11
64394;BMP280;50712;49.506;10.400;2024-03-02T01:59:22;96934.50;;;9.11
64394;BMP280;50712;49.506;10.400;2024-03-02T01:59:53;96939.19;;;9.10
64394;BMP280;50712;49.506;10.400;2024-03-02T02:00:23;96932.53;;;9.11
64394;BMP280;50712;49.506;10.400;2024-03-02T02:00:56;96934.50;;;9.11
64394;BMP280;50712;49.506;10.400;2024-03-02T02:01:26;96939.94;;;9.11
64394;BMP280;50712;49.506;10.400;2024-03-02T02:01:56;96935.69;;;9.10
64394;BMP280;50712;49.506;10.400;2024-03-02T02:02:27;96935.69;;;9.10
64394;BMP280;50712;49.506;10.400;2024-03-02T02:02:57;96931.03;;;9.10
64394;BMP280;50712;49.506;10.400;2024-03-02T02:03:28;96939.19;;;9.10
64394;BMP280;50712;49.506;10.400;2024-03-02T02:03:58;96941.91;;;9.10
64394;BMP280;50712;49.506;10.400;2024-03-02T02:04:28;96933.00;;;9.10
64394;BMP280;50712;49.506;10.400;2024-03-02T02:04:59;96935.25;;;9.11
64394;BMP280;50712;49.506;10.400;2024-03-02T02:05:29;96939.19;;;9.10
64394;BMP280;50712;49.506;10.400;2024-03-02T02:05:59;96936.47;;;9.10
64394;BMP280;50712;49.506;10.400;2024-03-02T02:06:30;96933.75;;;9.10
64394;BMP280;50712;49.506;10.400;2024-03-02T02:07:00;96931.03;;;9.10
64394;BMP280;50712;49.506;10.400;2024-03-02T02:07:31;96935.69;;;9.10
64394;BMP280;50712;49.506;10.400;2024-03-02T02:08:01;96930.28;;;9.10
64394;BMP280;50712;49.506;10.400;2024-03-02T02:08:32;96933.00;;;9.10
64394;BMP280;50712;49.506;10.400;2024-03-02T02:09:02;96931.47;;;9.09
64394;BMP280;50712;49.506;10.400;2024-03-02T02:09:33;96929.97;;;9.08
64394;BMP280;50712;49.506;10.400;2024-03-02T02:10:03;96932.69;;;9.08
64394;BMP280;50712;49.506;10.400;2024-03-02T02:10:34;96930.41;;;9.06
64394;BMP280;50712;49.506;10.400;2024-03-02T02:11:04;96925.47;;;9.05
64394;BMP280;50712;49.506;10.400;2024-03-02T02:11:34;96932.88;;;9.04
64394;BMP280;50712;49.506;10.400;2024-03-02T02:12:05;96929.41;;;9.04
64394;BMP280;50712;49.506;10.400;2024-03-02T02:12:36;96930.59;;;9.02
64394;BMP280;50712;49.506;10.400;2024-03-02T02:13:07;96925.16;;;9.02
64394;BMP280;50712;49.506;10.400;2024-03-02T02:13:38;96927.59;;;9.00
64394;BMP280;50712;49.506;10.400;2024-03-02T02:14:08;96931.50;;;8.99
64394;BMP280;50712;49.506;10.400;2024-03-02T02:14:39;96928.03;;;8.99
64394;BMP280;50712;49.506;10.400;2024-03-02T02:15:22;96930.00;;;8.98
64394;BMP280;50712;49.506;10.400;2024-03-02T02:16:06;96924.25;;;8.96
64394;BMP280;50712;49.506;10.400;2024-03-02T02:16:37;96924.25;;;8.96
64394;BMP280;50712;49.506;10.400;2024-03-02T02:17:07;96924.75;;;8.95
64394;BMP280;50712;49.506;10.400;2024-03-02T02:17:38;96920.53;;;8.94
64394;BMP280;50712;49.506;10.400;2024-03-02T02:18:08;96925.97;;;8.94
64394;BMP280;50712;49.506;10.400;2024-03-02T02:18:38;96920.97;;;8.92
64394;BMP280;50712;49.506;10.400;2024-03-02T02:19:09;96922.94;;;8.92
64394;BMP280;50712;49.506;10.400;2024-03-02T02:19:40;96922.94;;;8.92
64394;BMP280;50712;49.506;10.400;2024-03-02T02:20:11;96924.16;;;8.91
64394;BMP280;50712;49.506;10.400;2024-03-02T02:20:41;96926.88;;;8.91
64394;BMP280;50712;49.506;10.400;2024-03-02T02:21:12;96923.38;;;8.90
64394;BMP280;50712;49.506;10.400;2024-03-02T02:21:42;96928.06;;;8.90
64394;BMP280;50712;49.506;10.400;2024-03-02T02:22:13;96924.59;;;8.89
64394;BMP280;50712;49.506;10.400;2024-03-02T02:22:56;96919.91;;;8.90
64394;BMP280;50712;49.506;10.400;2024-03-02T02:23:27;96933.50;;;8.90
64394;BMP280;50712;49.506;10.400;2024-03-02T02:23:57;96930.78;;;8.90
64394;BMP280;50712;49.506;10.400;2024-03-02T02:24:28;96929.28;;;8.89
64394;BMP280;50712;49.506;10.400;2024-03-02T02:24:58;96922.34;;;8.88
64394;BMP280;50712;49.506;10.400;2024-03-02T02:25:29;96923.09;;;8.88
64394;BMP280;50712;49.506;10.400;2024-03-02T02:25:59;96929.28;;;8.89
64394;BMP280;50712;49.506;10.400;2024-03-02T02:26:30;96923.84;;;8.89
64394;BMP280;50712;49.506;10.400;2024-03-02T02:27:00;96923.53;;;8.87
64394;BMP280;50712;49.506;10.400;2024-03-02T02:27:31;96923.53;;;8.87
64394;BMP280;50712;49.506;10.400;2024-03-02T02:28:01;96929.72;;;8.87
64394;BMP280;50712;49.506;10.400;2024-03-02T02:28:32;96928.97;;;8.87
64394;BMP280;50712;49.506;10.400;2024-03-02T02:29:02;96921.59;;;8.87
64394;BMP280;50712;49.506;10.400;2024-03-02T02:29:32;96924.31;;;8.87
64394;BMP280;50712;49.506;10.400;2024-03-02T02:30:03;96915.88;;;8.85
64394;BMP280;50712;49.506;10.400;2024-03-02T02:30:33;96924.03;;;8.85
64394;BMP280;50712;49.506;10.400;2024-03-02T02:31:03;96916.66;;;8.86
64394;BMP280;50712;49.506;10.400;2024-03-02T02:31:40;96918.59;;;8.85
64394;BMP280;50712;49.506;10.400;2024-03-02T02:32:12;96919.81;;;8.84
64394;BMP280;50712;49.506;10.400;2024-03-02T02:32:42;96922.53;;;8.84
64394;BMP280;50712;49.506;10.400;2024-03-02T02:33:12;96919.81;;;8.84
64394;BMP280;50712;49.506;10.400;2024-03-02T02:33:43;96920.25;;;8.83
64394;BMP280;50712;49.506;10.400;2024-03-02T02:34:14;96923.72;;;8.83
64394;BMP280;50712;49.506;10.400;2024-03-02T02:34:44;96916.31;;;8.84
64394;BMP280;50712;49.506;10.400;2024-03-02T02:35:14;96919.03;;;8.84
64394;BMP280;50712;49.506;10.400;2024-03-02T02:35:45;96915.56;;;8.83
64394;BMP280;50712;49.506;10.400;2024-03-02T02:36:15;96917.53;;;8.83
64394;BMP280;50712;49.506;10.400;2024-03-02T02:36:46;96923.72;;;8.83
64394;BMP280;50712;49.506;10.400;2024-03-02T02:37:17;96919.50;;;8.82
64394;BMP280;50712;49.506;10.400;2024-03-02T02:37:47;96912.56;;;8.81
64394;BMP280;50712;49.506;10.400;2024-03-02T02:38:18;96913.31;;;8.82
64394;BMP280;50712;49.506;10.400;2024-03-02T02:38:50;96918.00;;;8.81
64394;BMP280;50712;49.506;10.400;2024-03-02T02:39:21;96916.47;;;8.80
64394;BMP280;50712;49.506;10.400;2024-03-02T02:39:52;96913.00;;;8.80
64394;BMP280;50712;49.506;10.400;2024-03-02T02:40:22;96913.00;;;8.80
64394;BMP280;50712;49.506;10.400;2024-03-02T02:40:53;96914.22;;;8.79
64394;BMP280;50712;49.506;10.400;2024-03-02T02:41:23;96914.22;;;8.79
64394;BMP280;50712;49.506;10.400;2024-03-02T02:41:54;96913.47;;;8.78
64394;BMP280;50712;49.506;10.400;2024-03-02T02:42:24;96921.63;;;8.78
64394;BMP280;50712;49.506;10.400;2024-03-02T02:42:54;96920.84;;;8.78
64394;BMP280;50712;49.506;10.400;2024-03-02T02:43:24;96920.09;;;8.77
64394;BMP280;50712;49.506;10.400;2024-03-02T02:43:55;96916.63;;;8.77
64394;BMP280;50712;49.506;10.400;2024-03-02T02:44:25;96915.16;;;8.76
64394;BMP280;50712;49.506;10.400;2024-03-02T02:44:56;96909.13;;;8.72
64394;BMP280;50712;49.506;10.400;2024-03-02T02:45:26;96914.41;;;8.75
64394;BMP280;50712;49.506;10.400;2024-03-02T02:45:56;96914.41;;;8.75
64394;BMP280;50712;49.506;10.400;2024-03-02T02:46:27;96919.06;;;8.75
64394;BMP280;50712;49.506;10.400;2024-03-02T02:46:57;96916.78;;;8.73
64394;BMP280;50712;49.506;10.400;2024-03-02T02:47:27;96916.78;;;8.73
64394;BMP280;50712;49.506;10.400;2024-03-02T02:47:59;96915.31;;;8.72
64394;BMP280;50712;49.506;10.400;2024-03-02T02:48:31;96911.84;;;8.72
64394;BMP280;50712;49.506;10.400;2024-03-02T02:49:02;96913.03;;;8.71
64394;BMP280;50712;49.506;10.400;2024-03-02T02:49:32;96915.75;;;8.71
64394;BMP280;50712;49.506;10.400;2024-03-02T02:50:03;96913.03;;;8.71
64394;BMP280;50712;49.506;10.400;2024-03-02T02:50:34;96908.38;;;8.71
64394;BMP280;50712;49.506;10.400;2024-03-02T02:51:04;96908.81;;;8.70
64394;BMP280;50712;49.506;10.400;2024-03-02T02:51:34;96910.78;;;8.69
64394;BMP280;50712;49.506;10.400;2024-03-02T02:52:05;96910.78;;;8.69
64394;BMP280;50712;49.506;10.400;2024-03-02T02:52:36;96910.03;;;8.69
64394;BMP280;50712;49.506;10.400;2024-03-02T02:53:06;96907.31;;;8.69
64394;BMP280;50712;49.506;10.400;2024-03-02T02:53:39;96904.59;;;8.69
64394;BMP280;50712;49.506;10.400;2024-03-02T02:54:12;96909.25;;;8.68
64394;BMP280;50712;49.506;10.400;2024-03-02T02:54:42;96902.31;;;8.67
64394;BMP280;50712;49.506;10.400;2024-03-02T02:55:13;96902.31;;;8.67
64394;BMP280;50712;49.506;10.400;2024-03-02T02:55:44;96901.88;;;8.69
64394;BMP280;50712;49.506;10.400;2024-03-02T02:56:15;96905.03;;;8.67
64394;BMP280;50712;49.506;10.400;2024-03-02T02:56:45;96910.47;;;8.67
64394;BMP280;50712;49.506;10.400;2024-03-02T02:57:15;96908.50;;;8.68
64394;BMP280;50712;49.506;10.400;2024-03-02T02:57:46;96906.56;;;8.68
64394;BMP280;50712;49.506;10.400;2024-03-02T02:58:16;96911.97;;;8.68
64394;BMP280;50712;49.506;10.400;2024-03-02T02:58:47;96896.16;;;8.67
64394;BMP280;50712;49.506;10.400;2024-03-02T02:59:17;96905.78;;;8.68
64394;BMP280;50712;49.506;10.400;2024-03-02T02:59:48;96910.03;;;8.69
64394;BMP280;50712;49.506;10.400;2024-03-02T03:00:18;96901.13;;;8.68
64394;BMP280;50712;49.506;10.400;2024-03-02T03:00:49;96908.81;;;8.70
64394;BMP280;50712;49.506;10.400;2024-03-02T03:01:20;96906.13;;;8.70